Time;durP1;ratioP1;P1;durP2;ratioP2;P2;SDS_P1;SDS_P2;PMS_P1;PMS_P2;Temp;Humidity;BMP_temperature;BMP_pressure;BME280_temperature;BME280_humidity;BME280_pressure;Samples;Min_cycle;Max_cycle;Signal;HPM_P1;HPM_P2
2022/07/29 00:03:29;;;;;;;12.90;12.23;;;;;;;18.99;100.00;101790.23;2006360;71;31398;-70
2022/07/29 00:09:14;;;;;;;13.63;12.73;;;;;;;18.95;100.00;101781.59;2014781;71;30963;-71
2022/07/29 00:14:59;;;;;;;12.73;12.13;;;;;;;18.79;100.00;101778.87;2009301;71;31003;-71
2022/07/29 00:20:43;;;;;;;13.60;12.90;;;;;;;18.83;100.00;101770.04;1994672;71;30960;-70
2022/07/29 00:26:31;;;;;;;15.67;14.87;;;;;;;18.65;100.00;101776.69;2016630;71;30966;-70
2022/07/29 00:32:14;;;;;;;15.77;14.97;;;;;;;18.57;100.00;101774.60;2016565;71;31405;-69
2022/07/29 00:37:58;;;;;;;17.60;16.70;;;;;;;18.50;100.00;101776.42;2005729;71;31422;-70
2022/07/29 00:43:44;;;;;;;19.20;18.30;;;;;;;18.36;100.00;101775.61;2016616;71;31427;-71
2022/07/29 00:49:28;;;;;;;21.33;20.23;;;;;;;18.17;100.00;101774.92;1994793;71;33375;-70
2022/07/29 00:55:15;;;;;;;23.20;22.10;;;;;;;18.08;100.00;101769.77;2008267;71;31436;-71
2022/07/29 01:01:00;;;;;;;25.53;24.17;;;;;;;17.85;100.00;101760.39;1996477;70;33412;-71
2022/07/29 01:06:45;;;;;;;26.20;24.70;;;;;;;17.89;100.00;101769.87;2000151;71;31491;-70
2022/07/29 01:12:32;;;;;;;29.43;27.80;;;;;;;17.84;100.00;101762.13;2011005;71;33379;-70
2022/07/29 01:18:24;;;;;;;31.37;29.67;;;;;;;17.56;100.00;101769.66;2001262;70;31496;-69
2022/07/29 01:21:21;;;;;;;31.63;29.83;;;;;;;17.51;100.00;101769.75;1965369;72;24198;-70
2022/07/29 01:27:35;;;;;;;35.70;33.63;;;;;;;17.46;100.00;101769.27;2011108;71;30864;-70
2022/07/29 01:39:31;;;;;;;44.37;41.93;;;;;;;17.25;100.00;101774.42;2009051;71;30944;-70
2022/07/29 01:42:05;;;;;;;44.73;42.07;;;;;;;17.10;100.00;101769.66;1985502;72;24154;-70
2022/07/29 01:47:56;;;;;;;47.00;44.30;;;;;;;17.10;100.00;101770.49;1996892;71;30895;-70
2022/07/29 01:53:45;;;;;;;47.70;45.07;;;;;;;16.67;100.00;101776.80;2018392;71;32886;-69
2022/07/29 01:59:33;;;;;;;53.03;50.13;;;;;;;16.52;100.00;101774.73;2003934;71;33380;-69
2022/07/29 02:05:20;;;;;;;56.50;53.40;;;;;;;16.50;100.00;101770.02;2003865;71;32948;-70
2022/07/29 02:11:06;;;;;;;56.83;53.73;;;;;;;16.30;100.00;101770.55;2016744;71;33453;-70
2022/07/29 02:16:55;;;;;;;58.13;54.97;;;;;;;16.19;100.00;101771.84;1998867;71;32888;-69
2022/07/29 02:22:42;;;;;;;58.73;55.50;;;;;;;16.11;100.00;101779.52;2007391;71;32865;-70
2022/07/29 02:28:29;;;;;;;60.13;56.83;;;;;;;15.99;100.00;101784.72;2013255;71;31543;-70
2022/07/29 02:34:18;;;;;;;60.60;57.30;;;;;;;16.15;100.00;101783.38;2000341;71;31018;-71
2022/07/29 02:40:04;;;;;;;60.53;57.33;;;;;;;15.99;100.00;101779.11;2009043;71;30890;-69
2022/07/29 02:45:53;;;;;;;60.10;56.80;;;;;;;15.97;100.00;101785.56;2005726;71;32785;-71
2022/07/29 02:48:27;;;;;;;59.97;56.57;;;;;;;15.92;100.00;101794.87;1959224;72;26207;-69
2022/07/29 02:51:00;;;;;;;60.87;57.47;;;;;;;15.78;100.00;101791.69;1971560;72;27152;-69
2022/07/29 02:56:48;;;;;;;61.60;58.20;;;;;;;15.87;100.00;101781.50;1997077;71;33293;-71
2022/07/29 03:02:37;;;;;;;61.13;57.73;;;;;;;15.86;100.00;101785.43;1956269;72;33040;-69
2022/07/29 03:08:21;;;;;;;58.67;55.23;;;;;;;15.87;100.00;101782.91;2016498;71;33391;-70
2022/07/29 03:14:07;;;;;;;59.33;55.87;;;;;;;15.73;100.00;101784.17;2002347;71;32861;-70
2022/07/29 03:19:51;;;;;;;60.60;56.70;;;;;;;15.63;100.00;101782.87;2016643;71;33406;-69
2022/07/29 03:25:36;;;;;;;63.10;59.53;;;;;;;15.58;100.00;101783.48;2003893;71;33388;-69
2022/07/29 03:31:21;;;;;;;62.03;58.50;;;;;;;15.59;100.00;101787.96;2004564;71;33414;-69
2022/07/29 03:37:06;;;;;;;59.27;55.90;;;;;;;15.51;100.00;101785.25;2005594;71;33369;-70
2022/07/29 03:42:55;;;;;;;61.60;58.00;;;;;;;15.57;100.00;101779.04;2009672;71;33356;-71
2022/07/29 03:48:44;;;;;;;59.73;56.33;;;;;;;15.67;100.00;101785.34;2013597;71;32887;-68
2022/07/29 03:54:29;;;;;;;63.63;60.13;;;;;;;15.48;100.00;101791.41;2009488;71;33046;-74
2022/07/29 04:00:17;;;;;;;62.40;58.73;;;;;;;15.57;100.00;101789.67;2000553;71;39730;-69
2022/07/29 04:06:06;;;;;;;60.50;57.03;;;;;;;15.56;100.00;101789.41;2006191;71;32909;-71
2022/07/29 04:11:51;;;;;;;62.60;58.93;;;;;;;15.54;100.00;101790.81;2011623;71;32791;-71
2022/07/29 04:17:39;;;;;;;61.57;58.10;;;;;;;15.47;100.00;101798.98;2013127;71;32932;-71
2022/07/29 04:23:26;;;;;;;63.67;59.97;;;;;;;15.41;100.00;101804.34;2014865;71;33479;-71
2022/07/29 04:29:14;;;;;;;62.43;58.83;;;;;;;15.61;100.00;101798.31;2016758;71;33470;-70
2022/07/29 04:35:03;;;;;;;61.27;57.60;;;;;;;15.49;100.00;101804.27;2011673;71;30787;-70
2022/07/29 04:40:50;;;;;;;62.63;59.10;;;;;;;15.84;100.00;101801.69;1998824;71;32853;-71
2022/07/29 04:46:34;;;;;;;64.17;60.37;;;;;;;15.73;100.00;101799.58;2016502;71;32854;-71
2022/07/29 04:52:19;;;;;;;62.27;58.67;;;;;;;15.83;100.00;101795.25;2006288;71;33360;-70
2022/07/29 04:58:03;;;;;;;66.03;62.13;;;;;;;15.83;100.00;101795.84;1997067;71;32881;-70
2022/07/29 05:03:48;;;;;;;61.10;57.60;;;;;;;15.86;100.00;101801.68;2000780;71;33359;-70
2022/07/29 05:09:32;;;;;;;62.80;59.10;;;;;;;15.96;100.00;101800.70;2013167;71;32808;-71
2022/07/29 05:15:19;;;;;;;61.13;57.57;;;;;;;15.94;100.00;101797.38;2000565;71;33348;-74
2022/07/29 05:21:08;;;;;;;63.40;59.90;;;;;;;16.03;100.00;101801.76;2011113;71;32820;-74
2022/07/29 05:26:53;;;;;;;63.87;60.13;;;;;;;16.10;100.00;101772.80;2010048;71;32749;-74
2022/07/29 05:32:40;;;;;;;61.47;57.77;;;;;;;16.52;100.00;101806.42;2011193;71;32902;-74
2022/07/29 05:38:27;;;;;;;62.77;59.07;;;;;;;16.58;100.00;101807.23;2013662;71;33302;-70
2022/07/29 05:44:14;;;;;;;62.10;58.40;;;;;;;16.53;100.00;101808.10;2015039;71;30906;-70
2022/07/29 05:49:59;;;;;;;61.77;58.23;;;;;;;16.61;100.00;101813.06;2009450;71;32833;-71
2022/07/29 05:55:45;;;;;;;62.90;59.03;;;;;;;16.60;100.00;101806.37;1998806;71;32851;-71
2022/07/29 06:01:29;;;;;;;63.43;59.67;;;;;;;16.81;100.00;101806.34;1992845;71;30974;-69
2022/07/29 06:07:17;;;;;;;63.87;60.17;;;;;;;16.81;100.00;101816.16;2048748;69;33211;-71
2022/07/29 06:13:01;;;;;;;64.33;60.50;;;;;;;16.81;100.00;101827.38;2005465;71;30862;-71
2022/07/29 06:18:45;;;;;;;64.50;60.47;;;;;;;17.04;100.00;101829.25;2016629;71;30899;-70
2022/07/29 06:24:30;;;;;;;64.83;61.13;;;;;;;17.18;100.00;101827.91;2014721;71;32864;-70
2022/07/29 06:30:15;;;;;;;62.07;58.57;;;;;;;17.47;100.00;101832.74;1995344;71;31454;-70
2022/07/29 06:36:00;;;;;;;59.63;56.13;;;;;;;17.50;100.00;101831.31;1998511;71;33030;-71
2022/07/29 06:41:45;;;;;;;59.00;55.43;;;;;;;17.69;100.00;101839.12;2011262;71;30985;-71
2022/07/29 06:47:29;;;;;;;58.63;55.30;;;;;;;17.76;100.00;101833.92;2014780;71;30893;-71
2022/07/29 06:53:16;;;;;;;60.93;57.47;;;;;;;17.98;100.00;101825.63;2018466;71;31356;-71
2022/07/29 06:59:00;;;;;;;59.57;56.20;;;;;;;18.02;100.00;101828.64;2000165;71;31326;-71
2022/07/29 07:04:44;;;;;;;59.40;55.77;;;;;;;18.37;100.00;101836.36;2006297;71;31351;-71
2022/07/29 07:10:29;;;;;;;55.93;52.63;;;;;;;18.45;100.00;101829.99;2003943;71;30963;-70
2022/07/29 07:16:14;;;;;;;59.70;56.00;;;;;;;18.69;100.00;101828.38;2000433;71;31418;-69
2022/07/29 07:21:58;;;;;;;58.30;54.80;;;;;;;18.87;100.00;101833.01;2016593;71;30972;-71
2022/07/29 07:27:42;;;;;;;57.47;53.97;;;;;;;19.16;100.00;101834.59;1997902;70;33390;-71
2022/07/29 07:33:27;;;;;;;53.47;50.37;;;;;;;19.65;100.00;101831.64;1991564;71;31368;-69
2022/07/29 07:39:11;;;;;;;50.83;47.90;;;;;;;19.82;100.00;101834.56;2009867;71;30808;-71
2022/07/29 07:44:55;;;;;;;53.50;50.60;;;;;;;19.77;100.00;101838.92;2015259;71;31433;-69
2022/07/29 07:50:40;;;;;;;51.03;48.13;;;;;;;19.96;100.00;101840.95;1998845;71;33062;-69
2022/07/29 07:56:24;;;;;;;45.23;42.63;;;;;;;20.25;100.00;101831.09;2011863;70;30830;-71
2022/07/29 08:02:10;;;;;;;45.43;42.47;;;;;;;20.61;100.00;101838.80;1995346;71;30837;-70
2022/07/29 08:07:55;;;;;;;33.77;31.60;;;;;;;21.13;100.00;101836.05;2013266;71;31093;-70
2022/07/29 08:13:40;;;;;;;30.20;28.10;;;;;;;21.22;100.00;101836.28;1998499;71;33463;-70
2022/07/29 08:19:24;;;;;;;23.50;22.00;;;;;;;21.45;100.00;101832.69;2004450;71;33367;-69
2022/07/29 08:25:09;;;;;;;21.20;19.73;;;;;;;21.79;100.00;101846.75;2003846;71;31497;-71
2022/07/29 08:30:54;;;;;;;18.23;17.20;;;;;;;21.86;100.00;101851.08;2000165;71;31032;-69
2022/07/29 08:36:38;;;;;;;15.23;14.30;;;;;;;22.18;100.00;101842.83;2018498;71;31002;-69
2022/07/29 08:42:23;;;;;;;14.93;13.90;;;;;;;22.28;100.00;101843.03;1991696;71;31316;-69
2022/07/29 08:48:07;;;;;;;12.68;11.88;;;;;;;22.37;100.00;101834.50;2008094;70;30891;-70
2022/07/29 08:53:54;;;;;;;11.73;11.12;;;;;;;22.63;100.00;101837.40;1995213;71;31368;-71
2022/07/29 08:59:41;;;;;;;11.40;10.70;;;;;;;22.71;100.00;101832.07;2016729;71;31386;-70
2022/07/29 09:05:29;;;;;;;10.55;10.05;;;;;;;22.71;100.00;101834.91;2009215;71;31013;-71
2022/07/29 09:11:14;;;;;;;11.50;10.70;;;;;;;22.96;100.00;101838.13;2003902;71;30950;-68
2022/07/29 09:16:58;;;;;;;11.78;10.88;;;;;;;22.79;100.00;101832.02;1995211;71;30814;-69
2022/07/29 09:22:46;;;;;;;12.25;11.28;;;;;;;22.85;100.00;101831.23;1998522;71;30922;-70
2022/07/29 09:28:30;;;;;;;11.55;10.75;;;;;;;22.78;100.00;101828.93;2013764;71;31410;-71
2022/07/29 09:34:16;;;;;;;11.00;10.50;;;;;;;23.24;100.00;101826.46;2007951;71;30817;-70
2022/07/29 09:40:04;;;;;;;11.57;10.90;;;;;;;23.10;100.00;101829.58;2000432;71;30875;-69
2022/07/29 09:45:50;;;;;;;11.03;10.32;;;;;;;23.02;100.00;101829.65;2014910;71;31419;-70
2022/07/29 09:51:36;;;;;;;16.07;10.93;;;;;;;22.91;100.00;101827.00;2000056;71;30997;-71
2022/07/29 09:57:38;;;;;;;10.35;9.78;;;;;;;23.42;100.00;101833.64;2005699;71;30866;-70
2022/07/29 10:03:24;;;;;;;10.95;10.18;;;;;;;23.38;100.00;101823.34;1996904;71;31340;-69
2022/07/29 10:09:25;;;;;;;11.00;10.48;;;;;;;23.41;100.00;101813.53;2000747;71;30839;-70
2022/07/29 10:15:25;;;;;;;10.60;10.10;;;;;;;23.48;100.00;101818.11;2013502;71;30873;-69
2022/07/29 10:21:10;;;;;;;12.13;11.22;;;;;;;23.28;100.00;101808.99;2013194;71;31009;-69
2022/07/29 10:26:56;;;;;;;11.05;10.55;;;;;;;23.35;100.00;101809.28;2004464;71;30876;-70
2022/07/29 10:33:02;;;;;;;11.00;10.20;;;;;;;23.48;100.00;101809.59;2002536;71;30908;-70
2022/07/29 10:38:58;;;;;;;10.93;10.25;;;;;;;23.82;100.00;101811.22;2000139;71;30924;-68
2022/07/29 10:41:42;;;;;;;10.93;10.38;;;;;;;23.75;100.00;101816.63;1976900;72;24259;-71
2022/07/29 10:47:31;;;;;;;11.90;11.20;;;;;;;23.42;100.00;101807.28;2011108;71;30886;-69
2022/07/29 10:53:16;;;;;;;11.45;10.80;;;;;;;23.47;100.00;101813.61;2014818;71;31071;-71
2022/07/29 10:59:26;;;;;;;11.90;10.95;;;;;;;23.57;100.00;101812.34;2009357;71;30876;-70
2022/07/29 11:05:12;;;;;;;11.15;10.55;;;;;;;23.61;100.00;101803.95;2014898;71;30902;-71
2022/07/29 11:08:03;;;;;;;11.20;10.60;;;;;;;23.59;100.00;101816.47;1970152;72;24225;-71
2022/07/29 11:13:54;;;;;;;11.03;10.48;;;;;;;23.79;100.00;101809.06;2010071;71;31006;-72
2022/07/29 11:19:41;;;;;;;10.58;9.98;;;;;;;23.70;100.00;101820.30;2018608;71;30881;-70
2022/07/29 11:25:26;;;;;;;11.55;10.80;;;;;;;23.98;100.00;101815.61;1998744;71;30799;-70
2022/07/29 11:31:12;;;;;;;11.03;10.43;;;;;;;23.78;100.00;101817.95;2006339;71;31380;-70
2022/07/29 11:37:19;;;;;;;10.60;10.03;;;;;;;23.99;100.00;101815.85;2012942;71;31045;-70
2022/07/29 11:43:48;;;;;;;10.80;10.30;;;;;;;23.95;100.00;101809.23;2004209;71;31360;-71
2022/07/29 11:49:35;;;;;;;10.48;9.88;;;;;;;23.71;100.00;101803.48;2006104;71;30958;-70
2022/07/29 11:55:22;;;;;;;14.75;13.95;;;;;;;24.27;100.00;101808.32;2013151;71;31403;-71
2022/07/29 12:01:08;;;;;;;11.88;11.18;;;;;;;24.20;100.00;101813.77;1995343;71;31387;-69
2022/07/29 12:06:53;;;;;;;10.75;10.05;;;;;;;24.16;100.00;101800.64;2016728;71;31430;-69
2022/07/29 12:12:39;;;;;;;11.15;10.38;;;;;;;24.31;100.00;101799.33;1991603;70;30954;-72
2022/07/29 12:18:35;;;;;;;11.28;10.53;;;;;;;24.15;100.00;101798.39;2011597;71;31335;-71
2022/07/29 12:24:24;;;;;;;11.57;10.53;;;;;;;24.11;100.00;101797.41;2015071;71;31379;-72
2022/07/29 12:30:14;;;;;;;14.25;11.22;;;;;;;24.17;100.00;101792.36;2003743;71;31424;-71
2022/07/29 12:36:03;;;;;;;11.70;10.58;;;;;;;24.28;100.00;101782.17;2009650;71;30865;-72
2022/07/29 12:41:48;;;;;;;11.60;10.65;;;;;;;24.30;100.00;101781.24;2013259;71;30971;-71
2022/07/29 12:47:34;;;;;;;11.28;10.45;;;;;;;24.17;100.00;101776.75;2011537;71;30898;-70
2022/07/29 12:53:26;;;;;;;11.95;11.00;;;;;;;24.70;100.00;101775.60;2018616;71;30941;-71
2022/07/29 12:59:19;;;;;;;11.83;10.95;;;;;;;24.73;100.00;101772.06;1991727;71;30795;-70
2022/07/29 13:05:06;;;;;;;11.30;10.60;;;;;;;24.84;100.00;101766.93;2016651;71;30894;-70
2022/07/29 13:10:51;;;;;;;11.95;10.85;;;;;;;24.61;100.00;101773.48;1998800;71;31380;-72
2022/07/29 13:17:00;;;;;;;10.85;10.35;;;;;;;24.59;100.00;101777.30;1994800;71;30885;-71
2022/07/29 13:22:53;;;;;;;11.30;10.60;;;;;;;24.85;100.00;101766.34;2015050;71;30922;-69
2022/07/29 13:28:44;;;;;;;10.85;10.32;;;;;;;24.93;100.00;101765.39;2008184;71;30821;-70
2022/07/29 13:34:37;;;;;;;11.22;10.50;;;;;;;25.21;100.00;101768.23;2016663;71;30950;-69
2022/07/29 13:40:25;;;;;;;11.40;10.80;;;;;;;24.56;100.00;101770.30;2008335;71;31348;-69
2022/07/29 13:46:10;;;;;;;10.75;10.25;;;;;;;25.27;100.00;101761.93;2016771;71;31404;-71
2022/07/29 13:51:56;;;;;;;10.35;9.85;;;;;;;25.16;100.00;101757.94;2018506;71;30866;-70
2022/07/29 13:57:41;;;;;;;10.38;9.88;;;;;;;24.83;100.00;101763.84;2015080;71;31847;-69
2022/07/29 14:03:30;;;;;;;10.65;9.95;;;;;;;24.81;100.00;101752.62;2000784;71;30919;-70
2022/07/29 14:09:18;;;;;;;10.88;10.38;;;;;;;24.85;100.00;101762.94;2011856;71;30923;-71
2022/07/29 14:15:03;;;;;;;9.98;9.53;;;;;;;24.76;100.00;101762.22;1998900;71;30832;-69
2022/07/29 14:20:47;;;;;;;10.55;9.98;;;;;;;24.45;100.00;101762.05;2013174;71;31491;-69
2022/07/29 14:26:33;;;;;;;15.78;14.87;;;;;;;24.64;100.00;101762.25;1998507;71;30900;-69
2022/07/29 14:32:18;;;;;;;11.75;11.10;;;;;;;24.68;100.00;101760.34;2016976;71;31346;-71
2022/07/29 14:38:03;;;;;;;11.00;10.50;;;;;;;24.83;100.00;101761.00;1996937;71;30808;-70
2022/07/29 14:43:49;;;;;;;11.18;10.35;;;;;;;25.04;100.00;101755.16;1997183;70;31422;-70
2022/07/29 14:49:35;;;;;;;11.38;10.40;;;;;;;24.92;100.00;101753.78;2015157;71;30853;-69
2022/07/29 14:55:21;;;;;;;11.28;10.58;;;;;;;24.94;100.00;101742.89;1991649;71;30996;-72
2022/07/29 15:01:08;;;;;;;10.23;9.73;;;;;;;24.61;100.00;101740.81;1992303;71;30798;-70
2022/07/29 15:06:51;;;;;;;11.15;10.55;;;;;;;24.77;100.00;101721.84;1991746;71;30910;-71
2022/07/29 15:12:37;;;;;;;10.40;9.90;;;;;;;25.02;100.00;101724.02;1994944;71;30973;-69
2022/07/29 15:18:23;;;;;;;10.98;10.35;;;;;;;25.12;100.00;101720.64;2004104;71;31852;-71
2022/07/29 15:24:09;;;;;;;11.15;10.50;;;;;;;25.39;100.00;101720.62;2016919;71;30945;-70
2022/07/29 15:29:54;;;;;;;10.53;10.03;;;;;;;25.22;100.00;101735.17;2006028;71;31415;-70
2022/07/29 15:35:40;;;;;;;10.72;10.23;;;;;;;24.90;100.00;101731.39;2002353;71;30949;-71
2022/07/29 15:41:25;;;;;;;10.72;10.15;;;;;;;25.28;100.00;101730.05;2009691;71;31402;-75
2022/07/29 15:47:11;;;;;;;10.80;10.10;;;;;;;25.24;100.00;101727.70;2018492;71;31002;-75
2022/07/29 15:52:57;;;;;;;10.13;9.73;;;;;;;25.26;100.00;101725.31;2000694;71;31627;-77
2022/07/29 15:58:43;;;;;;;10.23;9.75;;;;;;;25.34;100.00;101722.89;2013063;71;31147;-81
2022/07/29 16:04:27;;;;;;;10.35;9.85;;;;;;;25.35;100.00;101714.00;1997732;71;30810;-78
2022/07/29 16:10:14;;;;;;;11.48;10.30;;;;;;;25.35;100.00;101709.73;2009864;71;30857;-80
2022/07/29 16:15:59;;;;;;;11.45;10.68;;;;;;;25.25;100.00;101715.95;2012250;71;31437;-78
2022/07/29 16:21:45;;;;;;;10.25;9.75;;;;;;;25.15;100.00;101715.08;2015102;71;30923;-80
2022/07/29 16:27:32;;;;;;;10.50;10.00;;;;;;;25.15;100.00;101720.77;2005887;71;30934;-83
2022/07/29 16:33:17;;;;;;;10.58;10.08;;;;;;;25.14;100.00;101716.26;2015668;71;31358;-79
2022/07/29 16:39:05;;;;;;;10.88;10.38;;;;;;;25.17;100.00;101714.09;2009906;71;31424;-84
2022/07/29 16:44:58;;;;;;;11.38;10.72;;;;;;;25.29;100.00;101719.71;1997563;71;31837;-80
2022/07/29 16:50:44;;;;;;;10.80;10.40;;;;;;;25.26;100.00;101716.19;2019010;71;30930;-80
2022/07/29 16:56:31;;;;;;;10.55;10.05;;;;;;;25.28;100.00;101718.67;2010056;71;30942;-80
2022/07/29 17:02:17;;;;;;;10.50;9.93;;;;;;;25.15;100.00;101721.35;1997610;71;30961;-79
2022/07/29 17:08:02;;;;;;;10.60;10.00;;;;;;;25.13;100.00;101723.12;2019146;71;31342;-79
2022/07/29 17:13:48;;;;;;;11.40;10.80;;;;;;;25.14;100.00;101720.52;2006479;71;30807;-81
2022/07/29 17:19:35;;;;;;;11.03;10.43;;;;;;;25.12;100.00;101720.05;2006451;71;30811;-82
2022/07/29 17:25:22;;;;;;;10.58;10.08;;;;;;;25.03;100.00;101719.38;2009797;71;30960;-81
2022/07/29 17:31:06;;;;;;;11.38;10.48;;;;;;;24.93;100.00;101693.73;2015116;71;32411;-81
2022/07/29 17:36:52;;;;;;;11.15;10.55;;;;;;;25.04;100.00;101705.98;2014162;71;30893;-80
2022/07/29 17:42:37;;;;;;;10.70;10.20;;;;;;;25.08;100.00;101704.91;1991906;71;30952;-82
2022/07/29 17:48:26;;;;;;;10.78;10.10;;;;;;;25.05;100.00;101704.80;2006363;71;31845;-80
2022/07/29 17:54:18;;;;;;;11.00;10.40;;;;;;;25.05;100.00;101707.65;1993199;71;28542;-84
2022/07/29 17:59:58;;;;;;;10.58;10.08;;;;;;;25.06;100.00;101703.03;1843200;74;31711;-86
2022/07/29 18:02:29;;;;;;;10.60;10.03;;;;;;;24.98;100.00;101706.86;1835562;78;24274;-77
2022/07/29 18:05:00;;;;;;;10.45;9.83;;;;;;;24.93;100.00;101706.53;1835614;78;24660;-77
2022/07/29 18:07:37;;;;;;;11.65;11.05;;;;;;;24.89;100.00;101711.28;1835493;78;24139;-77
2022/07/29 18:13:27;;;;;;;10.23;9.80;;;;;;;24.83;100.00;101700.48;2009416;71;30868;-81
2022/07/29 18:19:12;;;;;;;9.70;9.30;;;;;;;24.79;100.00;101696.12;2013407;71;30956;-78
2022/07/29 18:24:57;;;;;;;10.38;9.88;;;;;;;24.75;100.00;101693.77;2007804;71;33381;-78
2022/07/29 18:30:44;;;;;;;10.25;9.75;;;;;;;24.63;100.00;101695.84;2014921;71;30867;-81
2022/07/29 18:36:32;;;;;;;10.15;9.65;;;;;;;24.56;100.00;101695.63;1997340;71;31341;-79
2022/07/29 18:42:19;;;;;;;10.58;9.95;;;;;;;24.53;100.00;101697.16;2005266;70;32297;-78
2022/07/29 18:48:05;;;;;;;10.80;10.13;;;;;;;24.55;100.00;101696.22;2011796;71;31412;-76
2022/07/29 18:53:51;;;;;;;10.72;10.13;;;;;;;24.44;100.00;101695.05;2015253;71;30875;-77
2022/07/29 18:59:36;;;;;;;10.08;9.40;;;;;;;24.36;100.00;101696.02;2002894;71;31334;-81
2022/07/29 19:05:22;;;;;;;10.85;10.15;;;;;;;24.83;100.00;101706.17;2009687;71;31007;-81
2022/07/29 19:11:11;;;;;;;11.05;10.45;;;;;;;24.78;100.00;101712.11;2006773;71;31464;-80
2022/07/29 19:16:56;;;;;;;11.55;10.35;;;;;;;24.69;100.00;101727.08;2006337;71;31399;-76
2022/07/29 19:22:41;;;;;;;10.72;10.13;;;;;;;24.42;100.00;101731.52;2008363;71;31346;-80
2022/07/29 19:28:29;;;;;;;10.80;10.20;;;;;;;24.42;100.00;101732.35;2013394;71;30945;-80
2022/07/29 19:34:14;;;;;;;10.95;10.28;;;;;;;24.55;100.00;101735.99;1995635;71;30811;-81
2022/07/29 19:40:03;;;;;;;11.30;10.50;;;;;;;24.52;100.00;101742.37;1997510;71;30822;-79
2022/07/29 19:45:49;;;;;;;11.33;10.43;;;;;;;24.45;100.00;101748.67;1998629;71;31449;-78
2022/07/29 19:51:34;;;;;;;11.22;10.70;;;;;;;24.38;100.00;101756.98;2018756;71;31373;-77
2022/07/29 19:57:20;;;;;;;10.65;10.10;;;;;;;24.31;100.00;101755.89;2004389;71;31386;-79
2022/07/29 20:03:05;;;;;;;10.65;10.15;;;;;;;23.90;100.00;101771.97;1978024;72;31049;-83
2022/07/29 20:08:51;;;;;;;10.40;9.90;;;;;;;23.92;100.00;101780.94;2004683;71;30808;-82
2022/07/29 20:14:38;;;;;;;10.80;10.18;;;;;;;24.07;100.00;101786.52;2009468;71;30928;-81
2022/07/29 20:20:24;;;;;;;10.93;10.38;;;;;;;24.04;100.00;101797.17;1991581;71;30816;-80
2022/07/29 20:26:11;;;;;;;11.10;10.50;;;;;;;24.31;100.00;101795.06;2004754;71;31734;-79
2022/07/29 20:31:58;;;;;;;11.20;10.60;;;;;;;23.83;100.00;101806.37;2009725;71;30958;-79
2022/07/29 20:37:44;;;;;;;10.75;10.15;;;;;;;23.65;100.00;101806.33;2005909;71;30938;-80
2022/07/29 20:43:30;;;;;;;11.60;10.82;;;;;;;23.69;100.00;101802.44;2000558;71;30892;-82
2022/07/29 20:49:18;;;;;;;11.60;10.90;;;;;;;23.58;100.00;101813.39;2010010;71;31039;-81
2022/07/29 20:55:09;;;;;;;11.70;10.75;;;;;;;23.06;100.00;101823.56;2013567;71;30925;-83
2022/07/29 21:00:56;;;;;;;10.82;10.32;;;;;;;22.48;100.00;101821.59;1996828;71;30882;-81
2022/07/29 21:06:42;;;;;;;10.95;10.45;;;;;;;22.41;100.00;101829.23;2009748;71;31409;-78
2022/07/29 21:12:28;;;;;;;11.18;10.58;;;;;;;22.49;100.00;101826.93;2000706;71;30897;-83
2022/07/29 21:18:26;;;;;;;11.55;10.78;;;;;;;22.25;100.00;101832.38;2011418;71;30894;-80
2022/07/29 21:24:14;;;;;;;10.75;10.15;;;;;;;22.18;100.00;101831.50;2006299;71;30927;-80
2022/07/29 21:30:00;;;;;;;11.35;10.55;;;;;;;22.04;100.00;101839.95;2003125;71;31294;-80
2022/07/29 21:35:45;;;;;;;11.70;11.00;;;;;;;22.06;100.00;101837.05;2000703;71;30924;-80
2022/07/29 21:41:30;;;;;;;10.80;10.28;;;;;;;21.91;100.00;101846.63;1996798;71;30890;-80
2022/07/29 21:47:20;;;;;;;11.00;10.30;;;;;;;21.65;100.00;101849.55;2001704;71;31402;-81
2022/07/29 21:53:05;;;;;;;11.38;10.65;;;;;;;21.54;100.00;101843.41;1998905;71;30880;-84
2022/07/29 21:58:55;;;;;;;10.82;10.23;;;;;;;21.53;100.00;101842.31;2001018;71;31239;-83
2022/07/29 22:04:40;;;;;;;11.30;10.70;;;;;;;21.47;100.00;101840.27;2017283;71;31481;-77
2022/07/29 22:10:28;;;;;;;12.30;11.37;;;;;;;21.29;100.00;101834.38;2001298;71;31301;-83
2022/07/29 22:16:14;;;;;;;12.00;11.40;;;;;;;21.16;100.00;101836.22;1991741;71;30913;-84
2022/07/29 22:21:59;;;;;;;12.23;11.17;;;;;;;21.12;100.00;101842.83;2004633;71;30942;-83
2022/07/29 22:27:45;;;;;;;11.77;10.90;;;;;;;20.89;100.00;101843.56;2019208;70;30904;-83
2022/07/29 22:33:32;;;;;;;12.00;11.27;;;;;;;20.78;100.00;101850.13;2007964;71;30877;-84
2022/07/29 22:39:20;;;;;;;12.40;11.70;;;;;;;20.77;100.00;101846.20;2018896;71;31040;-85
2022/07/29 22:45:10;;;;;;;12.83;12.10;;;;;;;20.57;100.00;101851.91;2013672;71;31369;-82
2022/07/29 22:50:57;;;;;;;12.60;11.80;;;;;;;20.49;100.00;101864.02;2013664;71;30899;-84
2022/07/29 22:56:46;;;;;;;13.03;12.17;;;;;;;20.43;100.00;101863.90;2004398;71;30972;-86
2022/07/29 23:02:35;;;;;;;12.80;12.20;;;;;;;20.39;100.00;101865.72;1951871;71;31590;-85
2022/07/29 23:08:21;;;;;;;13.03;12.23;;;;;;;20.16;100.00;101881.84;2001453;71;30893;-84
2022/07/29 23:14:09;;;;;;;13.90;13.00;;;;;;;20.10;100.00;101875.28;2002381;71;30913;-84
2022/07/29 23:19:56;;;;;;;13.47;12.67;;;;;;;20.05;100.00;101875.41;2015184;71;31353;-84
2022/07/29 23:25:47;;;;;;;16.33;15.20;;;;;;;19.96;100.00;101883.83;2009733;71;30906;-83
2022/07/29 23:31:34;;;;;;;20.57;18.83;;;;;;;19.83;100.00;101878.53;2011670;71;30914;-83
2022/07/29 23:37:24;;;;;;;17.90;16.63;;;;;;;19.86;100.00;101884.92;2011777;71;30890;-83
2022/07/29 23:43:11;;;;;;;18.53;17.23;;;;;;;19.83;100.00;101876.28;2004378;71;30922;-84
2022/07/29 23:48:56;;;;;;;18.93;17.47;;;;;;;19.76;100.00;101873.10;2004550;71;30910;-83
2022/07/29 23:54:44;;;;;;;18.27;17.17;;;;;;;19.78;100.00;101876.41;2010622;71;30893;-83
